createdAt,value
2023-01-05T00:00:42.964Z,11.60
2023-01-05T00:04:44.943Z,11.60
2023-01-05T00:08:46.798Z,11.80
2023-01-05T00:13:06.550Z,11.80
2023-01-05T00:17:30.216Z,11.70
2023-01-05T00:21:49.952Z,11.80
2023-01-05T00:25:51.021Z,11.80
2023-01-05T00:29:52.184Z,11.70
2023-01-05T00:33:53.330Z,11.60
2023-01-05T00:37:54.797Z,11.70
2023-01-05T00:41:55.985Z,12.00
2023-01-05T00:45:57.270Z,12.00
2023-01-05T00:49:58.503Z,12.00
2023-01-05T00:53:59.657Z,12.00
2023-01-05T00:58:00.878Z,12.00
2023-01-05T01:02:02.326Z,11.90
2023-01-05T01:06:04.053Z,11.90
2023-01-05T01:10:06.484Z,11.90
2023-01-05T01:14:09.624Z,12.10
2023-01-05T01:18:10.869Z,12.20
2023-01-05T01:22:12.517Z,12.10
2023-01-05T01:26:14.265Z,12.10
2023-01-05T01:30:15.589Z,12.00
2023-01-05T01:34:16.932Z,12.00
2023-01-05T01:38:18.129Z,12.00
2023-01-05T01:42:20.677Z,12.10
2023-01-05T01:46:23.367Z,12.10
2023-01-05T01:50:33.528Z,12.10
2023-01-05T01:54:34.871Z,12.10
2023-01-05T01:58:37.825Z,12.20
2023-01-05T02:02:39.040Z,12.30
2023-01-05T02:06:40.263Z,12.40
2023-01-05T02:11:08.013Z,12.50
2023-01-05T02:15:30.882Z,12.40
2023-01-05T02:19:44.581Z,12.60
2023-01-05T02:24:15.643Z,12.60
2023-01-05T02:28:29.200Z,12.50
2023-01-05T02:32:37.155Z,12.60
2023-01-05T02:36:57.397Z,12.60
2023-01-05T02:41:02.344Z,12.70
2023-01-05T02:45:05.770Z,12.70
2023-01-05T02:49:07.320Z,12.90
2023-01-05T02:53:24.123Z,12.90
2023-01-05T02:57:46.553Z,13.00
2023-01-05T03:01:51.697Z,13.00
2023-01-05T03:05:56.442Z,13.00
2023-01-05T03:09:59.572Z,13.00
2023-01-05T03:14:04.666Z,13.00
2023-01-05T03:18:09.028Z,12.90
2023-01-05T03:22:35.907Z,13.00
2023-01-05T03:26:57.613Z,13.00
2023-01-05T03:31:26.559Z,12.90
2023-01-05T03:35:33.046Z,12.90
2023-01-05T03:39:37.914Z,12.90
2023-01-05T03:43:41.280Z,13.00
2023-01-05T03:47:42.440Z,12.90
2023-01-05T03:51:43.589Z,13.00
2023-01-05T03:55:45.022Z,13.00
2023-01-05T03:59:46.158Z,12.80
2023-01-05T04:03:47.515Z,12.70
2023-01-05T04:07:48.668Z,12.60
2023-01-05T04:11:49.825Z,12.60
2023-01-05T04:15:51.063Z,12.60
2023-01-05T04:19:52.210Z,12.50
2023-01-05T04:23:53.379Z,12.50
2023-01-05T04:27:54.543Z,12.60
2023-01-05T04:31:55.689Z,12.50
2023-01-05T04:35:56.781Z,12.40
2023-01-05T04:39:57.925Z,12.30
2023-01-05T04:43:59.114Z,12.20
2023-01-05T04:48:00.262Z,12.20
2023-01-05T04:52:01.533Z,12.20
2023-01-05T04:56:02.706Z,12.20
2023-01-05T05:00:05.073Z,12.10
2023-01-05T05:04:06.247Z,12.00
2023-01-05T05:08:07.538Z,11.90
2023-01-05T05:12:08.695Z,12.00
2023-01-05T05:16:09.865Z,12.00
2023-01-05T05:20:11.397Z,12.10
2023-01-05T05:24:12.558Z,11.90
2023-01-05T05:28:13.716Z,12.00
2023-01-05T05:32:14.875Z,12.00
2023-01-05T05:36:17.226Z,12.00
2023-01-05T05:40:18.365Z,12.00
2023-01-05T05:44:19.535Z,12.10
2023-01-05T05:48:20.709Z,12.00
2023-01-05T05:52:21.789Z,12.00
2023-01-05T05:56:22.937Z,12.10
2023-01-05T06:00:25.367Z,12.00
2023-01-05T06:04:26.777Z,12.10
2023-01-05T06:08:29.089Z,12.00
2023-01-05T06:12:30.195Z,11.90
2023-01-05T06:16:31.639Z,11.90
2023-01-05T06:20:32.829Z,11.80
2023-01-05T06:24:34.001Z,11.90
2023-01-05T06:28:35.133Z,11.90
2023-01-05T06:32:36.253Z,11.90
2023-01-05T06:36:37.400Z,11.90
2023-01-05T06:40:40.074Z,12.00
2023-01-05T06:44:42.005Z,11.90
2023-01-05T06:48:43.162Z,12.00
2023-01-05T06:52:44.396Z,12.00
2023-01-05T06:56:45.479Z,12.00
2023-01-05T07:00:46.637Z,12.00
2023-01-05T07:04:47.953Z,12.00
2023-01-05T07:08:49.172Z,11.90
2023-01-05T07:12:50.332Z,11.90
2023-01-05T07:16:51.507Z,11.90
2023-01-05T07:20:52.751Z,11.80
2023-01-05T07:24:54.011Z,11.90
2023-01-05T07:28:55.566Z,11.90
2023-01-05T07:32:58.109Z,12.00
2023-01-05T07:36:59.334Z,12.00
2023-01-05T07:41:01.381Z,11.90
2023-01-05T07:45:02.822Z,11.90
2023-01-05T07:49:03.973Z,11.90
2023-01-05T07:53:05.127Z,11.60
2023-01-05T07:57:06.282Z,11.80
2023-01-05T08:01:10.224Z,11.80
2023-01-05T08:05:11.413Z,11.80
2023-01-05T08:09:31.042Z,11.80
2023-01-05T08:13:51.045Z,12.00
2023-01-05T08:17:52.175Z,12.00
2023-01-05T08:21:53.323Z,11.90
2023-01-05T08:25:54.981Z,12.00
2023-01-05T08:29:56.224Z,11.80
2023-01-05T08:33:59.239Z,12.00
2023-01-05T08:38:00.380Z,12.00
2023-01-05T08:42:02.956Z,12.10
2023-01-05T08:46:04.626Z,12.30
2023-01-05T08:50:08.680Z,12.40
2023-01-05T08:54:11.700Z,12.50
2023-01-05T08:58:12.856Z,12.50
2023-01-05T09:02:14.511Z,12.40
2023-01-05T09:06:16.898Z,12.50
2023-01-05T09:10:18.040Z,12.40
2023-01-05T09:14:19.282Z,12.50
2023-01-05T09:18:20.441Z,12.70
2023-01-05T09:22:21.698Z,12.80
2023-01-05T09:26:22.919Z,12.80
2023-01-05T09:30:24.052Z,13.20
2023-01-05T09:34:25.253Z,13.40
2023-01-05T09:38:26.566Z,13.40
2023-01-05T09:42:30.645Z,13.30
2023-01-05T09:46:38.435Z,13.10
2023-01-05T09:50:39.633Z,13.00
2023-01-05T09:54:40.825Z,13.10
2023-01-05T09:58:44.970Z,13.00
2023-01-05T10:03:08.306Z,13.00
2023-01-05T10:07:16.239Z,13.00
2023-01-05T10:11:39.483Z,12.70
2023-01-05T10:15:50.543Z,12.60
2023-01-05T10:19:52.180Z,12.70
2023-01-05T10:24:15.455Z,12.70
2023-01-05T10:28:23.379Z,12.90
2023-01-05T10:32:47.595Z,13.20
2023-01-05T10:37:07.854Z,13.20
2023-01-05T10:41:23.568Z,13.40
2023-01-05T10:45:27.789Z,13.30
2023-01-05T10:49:31.560Z,13.30
2023-01-05T10:53:40.343Z,13.10
2023-01-05T10:57:42.220Z,13.00
2023-01-05T11:01:46.761Z,12.90
2023-01-05T11:05:48.642Z,13.00
2023-01-05T11:09:50.001Z,13.20
2023-01-05T11:13:58.215Z,13.20
2023-01-05T11:17:59.683Z,13.30
2023-01-05T11:22:02.384Z,13.40
2023-01-05T11:26:13.837Z,13.40
2023-01-05T11:30:19.533Z,13.50
2023-01-05T11:34:33.630Z,13.60
2023-01-05T11:38:34.896Z,13.50
2023-01-05T11:42:38.049Z,13.70
2023-01-05T11:46:41.963Z,13.90
2023-01-05T11:50:46.206Z,13.80
2023-01-05T11:54:47.488Z,13.60
2023-01-05T11:58:51.335Z,13.80
2023-01-05T12:03:20.363Z,13.80
2023-01-05T12:07:31.603Z,13.80
2023-01-05T12:11:42.372Z,14.00
2023-01-05T12:15:50.055Z,14.00
2023-01-05T12:19:57.832Z,14.10
2023-01-05T12:24:05.860Z,14.20
2023-01-05T12:28:39.471Z,14.30
2023-01-05T12:37:00.066Z,14.40
2023-01-05T12:41:24.461Z,14.60
2023-01-05T12:45:50.293Z,14.70
2023-01-05T12:50:04.143Z,14.70
2023-01-05T12:54:39.246Z,14.60
2023-01-05T12:58:47.851Z,14.70
2023-01-05T13:03:06.401Z,14.60
2023-01-05T13:07:11.380Z,14.60
2023-01-05T13:11:28.578Z,14.50
2023-01-05T13:15:50.432Z,14.30
2023-01-05T13:19:57.912Z,14.10
2023-01-05T13:24:26.146Z,14.20
2023-01-05T13:28:30.053Z,14.30
2023-01-05T13:32:58.779Z,14.40
2023-01-05T13:37:03.752Z,14.60
2023-01-05T13:41:32.787Z,14.70
2023-01-05T13:46:00.827Z,14.70
2023-01-05T13:50:25.163Z,14.60
2023-01-05T13:54:59.944Z,14.40
2023-01-05T13:58:51.194Z,14.10
2023-01-05T14:03:08.358Z,14.10
2023-01-05T14:07:13.340Z,14.00
2023-01-05T14:11:18.409Z,14.00
2023-01-05T14:15:36.813Z,13.80
2023-01-05T14:19:41.824Z,13.50
2023-01-05T14:23:46.812Z,13.50
2023-01-05T14:28:17.817Z,13.30
2023-01-05T14:32:29.415Z,13.40
2023-01-05T14:36:40.393Z,13.40
2023-01-05T14:40:44.851Z,13.20
2023-01-05T14:44:58.359Z,13.20
2023-01-05T14:49:05.983Z,12.80
2023-01-05T14:53:38.123Z,12.90
2023-01-05T14:57:48.613Z,12.90
2023-01-05T15:01:53.543Z,12.80
2023-01-05T15:06:01.508Z,12.80
2023-01-05T15:10:23.318Z,12.70
2023-01-05T15:14:40.625Z,12.70
2023-01-05T15:18:57.881Z,12.60
2023-01-05T15:23:02.775Z,13.20
2023-01-05T15:27:29.321Z,12.80
2023-01-05T15:31:47.475Z,12.90
2023-01-05T15:35:56.399Z,13.00
2023-01-05T15:40:03.433Z,12.80
2023-01-05T15:44:04.804Z,12.90
2023-01-05T15:48:10.428Z,12.90
2023-01-05T15:52:21.448Z,12.80
2023-01-05T15:56:26.134Z,12.80
2023-01-05T16:00:30.484Z,12.90
2023-01-05T16:04:31.647Z,13.10
2023-01-05T16:08:35.406Z,13.10
2023-01-05T16:12:36.784Z,13.00
2023-01-05T16:16:52.372Z,12.90
2023-01-05T16:20:47.293Z,13.00
2023-01-05T16:25:22.913Z,12.80
2023-01-05T16:29:39.831Z,13.00
2023-01-05T16:33:41.083Z,12.90
2023-01-05T16:37:42.282Z,13.00
2023-01-05T16:41:45.333Z,12.80
2023-01-05T16:45:46.860Z,13.00
2023-01-05T16:49:57.702Z,12.90
2023-01-05T16:53:56.140Z,12.80
2023-01-05T16:57:58.958Z,12.80
2023-01-05T17:02:00.828Z,12.90
2023-01-05T17:06:02.293Z,12.80
2023-01-05T17:10:05.362Z,12.80
2023-01-05T17:14:07.047Z,12.80
2023-01-05T17:22:22.261Z,12.80
2023-01-05T17:26:35.863Z,12.70
2023-01-05T17:30:37.167Z,12.60
2023-01-05T17:34:40.651Z,12.60
2023-01-05T17:38:41.884Z,12.50
2023-01-05T17:42:43.266Z,12.50
2023-01-05T17:46:46.858Z,12.40
2023-01-05T17:50:48.805Z,12.40
2023-01-05T17:54:50.176Z,12.40
2023-01-05T17:58:51.955Z,12.30
2023-01-05T18:02:54.025Z,12.30
2023-01-05T18:06:55.164Z,12.30
2023-01-05T18:10:58.128Z,12.30
2023-01-05T18:14:59.269Z,12.30
2023-01-05T18:19:00.436Z,12.20
2023-01-05T18:23:01.584Z,12.20
2023-01-05T18:27:04.650Z,12.10
2023-01-05T18:31:13.719Z,12.20
2023-01-05T18:35:15.048Z,12.30
2023-01-05T18:39:16.196Z,12.30
2023-01-05T18:43:17.411Z,12.40
2023-01-05T18:47:18.561Z,12.60
2023-01-05T18:51:19.753Z,12.60
2023-01-05T18:55:20.969Z,12.50
2023-01-05T18:59:22.131Z,12.30
2023-01-05T19:03:23.281Z,12.40
2023-01-05T19:07:24.450Z,12.50
2023-01-05T19:11:26.896Z,12.40
2023-01-05T19:15:28.083Z,12.30
2023-01-05T19:19:29.264Z,12.40
2023-01-05T19:23:30.435Z,12.40
2023-01-05T19:27:31.594Z,12.40
2023-01-05T19:31:33.775Z,12.50
2023-01-05T19:35:35.156Z,12.60
2023-01-05T19:39:36.371Z,12.60
2023-01-05T19:43:40.167Z,12.50
2023-01-05T19:47:42.402Z,12.50
2023-01-05T19:51:44.662Z,12.40
2023-01-05T19:55:45.877Z,12.40
2023-01-05T19:59:47.012Z,12.40
2023-01-05T20:03:49.035Z,12.20
2023-01-05T20:07:52.475Z,12.10
2023-01-05T20:11:59.525Z,12.10
2023-01-05T20:16:03.202Z,11.80
2023-01-05T20:20:04.775Z,11.60
2023-01-05T20:24:12.418Z,11.60
2023-01-05T20:28:13.567Z,11.60
2023-01-05T20:32:20.350Z,11.80
2023-01-05T20:36:23.071Z,11.80
2023-01-05T20:40:24.309Z,11.80
2023-01-05T20:44:26.228Z,11.80
2023-01-05T20:48:29.863Z,11.90
2023-01-05T20:52:31.161Z,12.00
2023-01-05T20:56:35.567Z,11.90
2023-01-05T21:01:11.177Z,11.80
2023-01-05T21:04:40.262Z,11.80
2023-01-05T21:08:44.639Z,11.90
2023-01-05T21:12:45.914Z,12.00
2023-01-05T21:16:52.159Z,11.90
2023-01-05T21:20:53.765Z,11.90
2023-01-05T21:24:54.948Z,12.10
2023-01-05T21:28:56.193Z,12.10
2023-01-05T21:32:57.397Z,11.90
2023-01-05T21:36:58.603Z,12.10
2023-01-05T21:41:04.826Z,12.00
2023-01-05T21:45:07.701Z,12.20
2023-01-05T21:49:10.192Z,12.10
2023-01-05T21:53:33.917Z,12.40
2023-01-05T21:57:35.710Z,12.30
2023-01-05T22:01:38.334Z,12.10
2023-01-05T22:05:39.580Z,12.30
2023-01-05T22:09:40.854Z,12.10
2023-01-05T22:13:42.096Z,12.20
2023-01-05T22:17:43.918Z,12.30
2023-01-05T22:21:45.109Z,12.50
2023-01-05T22:25:46.297Z,12.40
2023-01-05T22:29:47.494Z,12.30
2023-01-05T22:33:51.401Z,12.40
2023-01-05T22:37:52.677Z,12.40
2023-01-05T22:41:53.838Z,12.50
2023-01-05T22:46:00.424Z,12.40
2023-01-05T22:50:02.966Z,12.40
2023-01-05T22:54:04.473Z,12.30
2023-01-05T22:58:05.683Z,12.30
2023-01-05T23:02:07.175Z,12.40
2023-01-05T23:06:08.741Z,12.40
2023-01-05T23:10:09.947Z,12.40
2023-01-05T23:14:12.400Z,12.40
2023-01-05T23:18:13.607Z,12.20
2023-01-05T23:22:14.717Z,12.30
2023-01-05T23:26:16.021Z,12.40
2023-01-05T23:30:17.296Z,12.30
2023-01-05T23:34:18.565Z,12.40
2023-01-05T23:38:20.083Z,12.50
2023-01-05T23:42:39.950Z,12.50
2023-01-05T23:46:41.152Z,12.50
2023-01-05T23:50:44.301Z,12.30
2023-01-05T23:54:45.502Z,12.40
2023-01-05T23:58:47.513Z,12.30
